Lakeview AWS, OR

2:26 PM PST on December 16, 2017 (GMT -0800)
Lake County | | Change Station
Active Advisory: Air Stagnation Advisory

Elev 4731 ft 42.16 °N, 120.40 °W | Updated 30 minutes ago

Clear
Clear
32 °F
Feels Like 22 °F
N
14
Wind Variable Wind from North

Today
High -- | Low -- °F
--% Chance of Precip.
Yesterday
High -- | Low -- °F
Precip. -- in
Pressure 30.25 in
Visibility 10.0 miles
Clouds Few 3000 ft
Windchill 22 °F
Dew Point 21 °F
Humidity 64%
Rainfall 0.00 in
Snow Depth Not available.
7:24 AM 4:30 PM
Waning Crescent, 2% visible
METAR KLKV 162156Z AUTO 01012KT 10SM FEW030 00/M06 A3015 RMK AO2 SLP243 T00001061 FZRANO PNO $
Pressure 30.25 in
Visibility 10.0 miles
Clouds Few 3000 ft
Windchill 22 °F
Dew Point 21 °F
Humidity 64%
Rainfall 0.00 in
Snow Depth Not available.
7:24 AM 4:30 PM
Waning Crescent, 2% visible
METAR KLKV 162156Z AUTO 01012KT 10SM FEW030 00/M06 A3015 RMK AO2 SLP243 T00001061 FZRANO PNO $

Get Your Daily Forecast Email!

Thanks for signing up!

Be on the lookout for a verification email in your inbox.

You'll start receiving severe weather alerts in your inbox..

×

10-Day Weather Forecast

Almanac

Astronomy

Dec. 16, 2017 Rise Set
Actual Time
Civil Twilight
Nautical Twilight
Astronomical Twilight
Moon
Length of Visible Light
Length of Day
Tomorrow will be .
, % of the Moon is Illuminated

Today's Extremes

State Highs State Lows

Community

WunderPhotos

Category 6

Welcome to Category 6. This is the collective home for Weather Underground's featured writeups by Dr. Jeff Masters (right), Bob Henson (left), Chris Burt, and other regular contributors.

Nearby

Air Quality

  Air Quality AQ Index Pollutant
Not available.

Snow Depth

Station Depth Elevation

Earthquake Activity

City Distance Mag. Time & Date
Minimum magnitude displayed is 2.5.

Coastal Water Temperatures

Place Temperature

Stations

Nearby Weather Stations

Station Location Temp. Windchill Dew Point Humidity Wind Precip. Elev Updated Type
                   

Watches & Warnings

Air Stagnation Advisory
Issued: 1:33 PM PST Dec. 16, 2017 – National Weather Service

... Air stagnation advisory in effect from 7 PM this evening to
8 am PST Tuesday...

The National Weather Service in Medford has issued an air
stagnation advisory... which is in effect from 7 PM this evening
to 8 am PST Tuesday.

* Air quality: quality will deteriorate beginning tonight due to
high pressure and limited ventilation.

* Locations include: all inland valleys.

* Impacts: limited ventilation will result in degraded air
quality, which may pose a risk to those working outside and to
those with sensitive health issues.

* View the hazard area in detail at
https://www.Wrh.NOAA.Gov/mfr/hazard

Precautionary/preparedness actions...

An air stagnation advisory indicates that due to limited movement
of an airmass across the advisory area, pollution will increase.